createdAt,value
2018-09-29T00:06:49.586Z,13.37
2018-09-29T00:09:53.181Z,8.03
2018-09-29T00:12:36.126Z,9.97
2018-09-29T00:19:14.672Z,6.07
2018-09-29T00:22:03.508Z,7.37
2018-09-29T00:24:44.818Z,7.50
2018-09-29T00:27:47.225Z,9.77
2018-09-29T00:30:43.212Z,12.43
2018-09-29T00:33:32.884Z,7.33
2018-09-29T00:36:17.615Z,9.03
2018-09-29T00:39:04.297Z,9.53
2018-09-29T00:43:49.124Z,7.53
2018-09-29T00:46:29.170Z,8.77
2018-09-29T00:49:11.097Z,9.83
2018-09-29T00:51:59.432Z,15.93
2018-09-29T00:54:45.326Z,6.87
2018-09-29T00:57:28.844Z,12.13
2018-09-29T01:00:14.617Z,8.40
2018-09-29T01:03:01.468Z,8.27
2018-09-29T01:05:53.377Z,10.43
2018-09-29T01:11:54.429Z,10.87
2018-09-29T01:14:44.679Z,8.83
2018-09-29T01:17:25.925Z,16.73
2018-09-29T01:23:10.102Z,9.67
2018-09-29T01:29:28.527Z,8.33
2018-09-29T01:32:24.679Z,8.57
2018-09-29T01:35:09.410Z,8.47
2018-09-29T01:38:09.104Z,10.77
2018-09-29T01:40:55.302Z,9.13
2018-09-29T01:47:14.621Z,8.00
2018-09-29T01:49:46.274Z,5.87
2018-09-29T01:52:19.193Z,10.97
2018-09-29T01:54:50.220Z,10.13
2018-09-29T01:57:24.638Z,11.47
2018-09-29T02:00:05.600Z,9.50
2018-09-29T02:05:54.888Z,10.33
2018-09-29T02:11:28.926Z,12.20
2018-09-29T02:14:14.688Z,12.93
2018-09-29T02:16:58.314Z,14.13
2018-09-29T02:19:40.940Z,10.90
2018-09-29T02:22:18.412Z,9.87
2018-09-29T02:25:00.575Z,9.87
2018-09-29T02:31:02.833Z,11.87
2018-09-29T02:33:39.094Z,10.40
2018-09-29T02:36:25.414Z,13.47
2018-09-29T02:39:12.036Z,13.00
2018-09-29T02:41:47.635Z,14.10
2018-09-29T02:47:32.626Z,9.93
2018-09-29T02:50:06.349Z,10.90
2018-09-29T02:52:49.886Z,9.83
2018-09-29T02:55:32.489Z,5.93
2018-09-29T02:58:11.494Z,9.13
2018-09-29T03:00:44.943Z,13.13
2018-09-29T03:03:22.513Z,13.40
2018-09-29T03:05:59.931Z,8.47
2018-09-29T03:08:43.051Z,11.13
2018-09-29T03:11:18.759Z,12.53
2018-09-29T03:13:55.966Z,10.50
2018-09-29T03:17:37.500Z,9.37
2018-09-29T03:20:21.494Z,13.27
2018-09-29T03:23:01.948Z,12.53
2018-09-29T03:25:46.870Z,8.67
2018-09-29T03:28:24.216Z,12.97
2018-09-29T03:31:20.112Z,10.27
2018-09-29T03:33:55.287Z,12.53
2018-09-29T03:36:42.883Z,9.20
2018-09-29T03:53:04.048Z,10.10
2018-09-29T03:55:51.868Z,13.70
2018-09-29T03:58:28.134Z,10.17
2018-09-29T04:01:27.746Z,14.57
2018-09-29T04:04:14.702Z,15.57
2018-09-29T04:06:55.277Z,19.27
2018-09-29T04:09:42.246Z,8.37
2018-09-29T04:12:18.347Z,8.97
2018-09-29T04:14:50.651Z,11.73
2018-09-29T04:17:39.271Z,10.60
2018-09-29T04:20:20.185Z,14.03
2018-09-29T04:23:11.219Z,7.03
2018-09-29T04:25:55.723Z,10.20
2018-09-29T04:28:39.488Z,10.43
2018-09-29T04:34:41.530Z,10.60
2018-09-29T04:37:18.372Z,9.97
2018-09-29T04:39:59.593Z,8.43
2018-09-29T04:42:37.557Z,16.53
2018-09-29T04:45:24.092Z,9.73
2018-09-29T04:51:22.759Z,10.87
2018-09-29T04:53:56.674Z,9.27
2018-09-29T04:56:28.876Z,12.67
2018-09-29T04:59:08.059Z,13.03
2018-09-29T05:01:45.923Z,16.07
2018-09-29T05:04:27.215Z,11.53
2018-09-29T05:07:06.650Z,10.23
2018-09-29T05:09:50.124Z,12.27
2018-09-29T05:12:22.436Z,10.23
2018-09-29T05:14:56.327Z,6.20
2018-09-29T05:17:36.338Z,9.77
2018-09-29T05:20:14.007Z,9.67
2018-09-29T05:22:55.661Z,9.80
2018-09-29T05:25:28.786Z,10.97
2018-09-29T05:28:00.028Z,11.17
2018-09-29T05:30:43.829Z,12.13
2018-09-29T05:33:18.318Z,12.17
2018-09-29T05:35:49.332Z,8.60
2018-09-29T05:38:21.241Z,8.57
2018-09-29T05:40:54.666Z,9.60
2018-09-29T05:43:34.311Z,11.87
2018-09-29T05:46:37.468Z,8.03
2018-09-29T05:49:12.863Z,16.67
2018-09-29T05:54:29.844Z,13.17
2018-09-29T05:57:00.000Z,9.67
2018-09-29T05:59:49.381Z,9.57
2018-09-29T06:02:21.844Z,9.97
2018-09-29T06:04:59.496Z,11.83
2018-09-29T06:07:38.252Z,9.50
2018-09-29T06:10:21.506Z,8.90
2018-09-29T06:12:59.359Z,14.03
2018-09-29T06:15:36.997Z,15.63
2018-09-29T06:18:22.125Z,9.57
2018-09-29T06:21:08.984Z,10.07
2018-09-29T06:23:48.032Z,8.93
2018-09-29T06:26:19.965Z,14.53
2018-09-29T09:01:24.719Z,11.23
2018-09-29T09:15:20.392Z,10.77
2018-09-29T10:34:03.872Z,7.90
2018-09-29T10:50:40.832Z,7.30
2018-09-29T10:56:26.804Z,4.90
2018-09-29T10:59:19.699Z,6.23
2018-09-29T11:02:01.676Z,6.63
2018-09-29T11:04:50.427Z,7.47
2018-09-29T11:07:36.339Z,9.10
2018-09-29T11:10:26.494Z,8.60
2018-09-29T11:15:56.233Z,8.20
2018-09-29T11:19:05.706Z,6.33
2018-09-29T11:22:04.857Z,8.20
2018-09-29T11:24:55.595Z,7.93
2018-09-29T11:27:48.066Z,11.50
2018-09-29T11:43:28.664Z,3.67
2018-09-29T11:49:40.578Z,8.23
2018-09-29T12:35:19.481Z,9.33
2018-09-29T12:38:09.394Z,6.10
2018-09-29T12:54:46.340Z,4.87
2018-09-29T12:57:38.392Z,4.27
2018-09-29T13:00:23.058Z,3.73
2018-09-29T13:05:54.528Z,3.83
2018-09-29T13:08:39.232Z,7.53
2018-09-29T13:14:59.958Z,9.60
2018-09-29T13:18:01.674Z,4.40
2018-09-29T13:34:37.322Z,4.23
2018-09-29T13:37:11.755Z,6.77
2018-09-29T13:39:54.340Z,7.57
2018-09-29T13:56:56.008Z,6.27
2018-09-29T14:01:04.810Z,2.23
2018-09-29T14:26:26.204Z,5.60
2018-09-29T14:29:35.501Z,3.40
2018-09-29T14:32:28.390Z,6.10
2018-09-29T14:35:17.586Z,3.87
2018-09-29T14:37:57.610Z,6.03
2018-09-29T14:40:46.558Z,6.60
2018-09-29T14:43:22.018Z,8.60
2018-09-29T14:46:01.302Z,3.20
2018-09-29T14:48:37.598Z,3.20
2018-09-29T14:51:20.478Z,4.07
2018-09-29T14:59:56.741Z,4.23
2018-09-29T15:02:31.877Z,4.90
2018-09-29T15:05:32.239Z,5.97
2018-09-29T15:11:19.849Z,5.97
2018-09-29T15:37:58.295Z,5.50
2018-09-29T16:04:14.344Z,13.40
2018-09-29T16:06:52.280Z,15.33
2018-09-29T16:09:37.857Z,11.73
2018-09-29T16:12:25.471Z,7.13
2018-09-29T16:15:42.290Z,6.40
2018-09-29T16:18:41.181Z,7.13
2018-09-29T16:21:38.559Z,5.87
2018-09-29T16:24:32.335Z,7.27
2018-09-29T16:27:12.866Z,7.37
2018-09-29T17:22:30.694Z,9.33
2018-09-29T17:25:15.306Z,10.23
2018-09-29T17:27:53.140Z,8.30
2018-09-29T17:30:53.306Z,10.77
2018-09-29T17:33:24.985Z,11.67
2018-09-29T17:36:09.119Z,10.70
2018-09-29T17:38:45.441Z,10.83
2018-09-29T17:41:38.500Z,9.80
2018-09-29T17:44:11.652Z,9.30
2018-09-29T17:46:44.105Z,9.40
2018-09-29T17:49:14.691Z,12.50
2018-09-29T17:51:45.185Z,7.47
2018-09-29T17:54:19.414Z,9.17
2018-09-29T17:56:50.201Z,8.30
2018-09-29T17:59:21.200Z,12.43
2018-09-29T18:02:02.782Z,19.13
2018-09-29T18:04:51.077Z,15.60
2018-09-29T18:07:35.107Z,17.57
2018-09-29T18:14:10.326Z,17.37
2018-09-29T18:16:54.740Z,21.30
2018-09-29T18:19:33.868Z,26.03
2018-09-29T18:25:36.610Z,22.70
2018-09-29T18:28:07.655Z,21.57
2018-09-29T18:30:39.938Z,22.20
2018-09-29T18:33:11.119Z,21.20
2018-09-29T18:35:57.521Z,23.90
2018-09-29T18:38:29.700Z,24.53
2018-09-29T18:41:02.416Z,25.30
2018-09-29T18:43:41.053Z,24.90
2018-09-29T18:46:28.017Z,28.53
2018-09-29T18:49:03.157Z,27.73
2018-09-29T18:51:36.195Z,27.20
2018-09-29T18:54:07.730Z,26.23
2018-09-29T18:56:40.685Z,25.70
2018-09-29T18:59:11.699Z,20.17
2018-09-29T19:01:49.112Z,29.17
2018-09-29T19:04:26.919Z,25.63
2018-09-29T19:06:57.645Z,23.33
2018-09-29T19:09:32.606Z,24.20
2018-09-29T19:12:03.475Z,24.00
2018-09-29T19:14:35.021Z,22.03
2018-09-29T19:17:17.513Z,22.67
2018-09-29T19:34:54.481Z,24.97
2018-09-29T19:45:21.056Z,28.47
2018-09-29T19:51:04.603Z,27.00
2018-09-29T20:29:48.731Z,24.37
2018-09-29T20:32:26.768Z,23.63
2018-09-29T20:38:00.182Z,25.17
2018-09-29T20:40:31.671Z,23.77
2018-09-29T20:45:52.858Z,24.17
2018-09-29T20:48:49.152Z,21.37
2018-09-29T20:51:54.478Z,22.90
2018-09-29T21:09:17.097Z,22.87
2018-09-29T21:20:07.038Z,31.30
2018-09-29T21:22:52.782Z,18.23
2018-09-29T21:26:09.220Z,19.53
2018-09-29T21:29:13.753Z,17.27
2018-09-29T21:32:04.346Z,19.40
2018-09-29T21:34:53.056Z,14.93
2018-09-29T21:37:47.149Z,17.53
2018-09-29T21:41:07.765Z,16.97
2018-09-29T21:57:41.907Z,14.70
2018-09-29T22:00:43.068Z,20.43
2018-09-29T22:05:16.756Z,12.13
2018-09-29T22:08:22.678Z,20.90
2018-09-29T22:14:55.824Z,13.93
2018-09-29T22:17:38.431Z,14.80
2018-09-29T22:20:22.701Z,13.27
2018-09-29T22:32:36.353Z,16.13
2018-09-29T22:38:38.339Z,13.87
2018-09-29T22:41:23.410Z,10.03
2018-09-29T22:47:03.479Z,13.23
2018-09-29T22:49:58.848Z,18.57
2018-09-29T22:52:48.721Z,9.93
2018-09-29T22:55:29.100Z,10.37
2018-09-29T22:58:05.870Z,10.33
2018-09-29T23:00:37.513Z,8.30
2018-09-29T23:03:09.801Z,9.10
2018-09-29T23:05:49.351Z,8.27
2018-09-29T23:08:22.530Z,11.87
2018-09-29T23:11:03.607Z,10.77
2018-09-29T23:13:43.228Z,8.83
2018-09-29T23:16:14.171Z,10.20
2018-09-29T23:18:47.928Z,11.77
2018-09-29T23:21:43.172Z,7.97
2018-09-29T23:24:15.919Z,11.33
2018-09-29T23:26:51.701Z,13.13
2018-09-29T23:29:37.402Z,11.90
2018-09-29T23:33:26.054Z,9.00
2018-09-29T23:36:06.240Z,9.53
2018-09-29T23:38:39.279Z,8.73
2018-09-29T23:41:22.947Z,8.07
2018-09-29T23:43:56.518Z,9.27
